Weather History for Provincetown, MA

Change the Weather History Date:

Saturday, January 25, 2014

  Actual Average Record
Temperature  
Mean Temperature 30 °F -  
Max Temperature 41 °F 33 °F 53 °F (1953)
Min Temperature 19 °F 23 °F 6 °F (2004)
Degree Days  
Heating Degree Days 35    
Moisture  
Dew Point 23 °F    
Average Humidity 70    
Maximum Humidity 93    
Minimum Humidity 59    
Precipitation  
Precipitation 0.05 in - - ()
Sea Level Pressure  
Sea Level Pressure 29.68 in    
Wind  
Wind Speed 19 mph (SW)    
Max Wind Speed 26 mph    
Max Gust Speed 37 mph    
Visibility 10 miles    
Events      
Averages and records for this station are not official NWS values.
T = Trace of Precipitation, MM = Missing Value Source: NWS Daily Summary

Daily Weather History Graph

Daily Weather History Graph

Search for Another Location

Airport:

Trip Planner

Search our weather history database for the weather conditions in past years. The results will help you decide how hot, cold, wet, or windy it might be!

Date:

Astronomy

Jan. 25, 2014 Rise Set
Actual Time 7:00 AM EST 4:46 PM EST
Civil Twilight 6:30 AM EST 5:16 PM EST
Nautical Twilight 5:56 AM EST 5:50 PM EST
Astronomical Twilight 5:23 AM EST 6:23 PM EST
Moon 1:28 AM EST (1/25) 11:44 AM EST (1/25)
Length of Visible Light 10h 46m
Length of Day
9h 46m
Waning Crescent, 34% of the Moon is Illuminated
Jan 25
Waning Crescent
Jan 30
New
Feb 6
First Quarter
Feb 14
Full
Feb 22
Last Quarter

Hourly Weather History & Observations

Time (EST) Temp. Windchill Dew Point Humidity Pressure Visibility Wind Dir Wind Speed Gust Speed Precip Events Conditions
12:15 AM 19.4 °F 6.0 °F 8.6 °F 63% 30.09 in 10.0 mi SW 13.8 mph 18.4 mph N/A   Partly Cloudy
12:35 AM 19.4 °F 6.6 °F 10.4 °F 68% 30.08 in 10.0 mi SW 12.7 mph - N/A   Partly Cloudy
12:55 AM 19.4 °F 5.0 °F 12.2 °F 74% 30.06 in 10.0 mi SW 16.1 mph 21.9 mph N/A   Mostly Cloudy
1:15 AM 21.2 °F 6.0 °F 12.2 °F 68% 30.05 in 10.0 mi SW 19.6 mph 25.3 mph N/A   Overcast
1:35 AM 21.2 °F 6.4 °F 14.0 °F 74% 30.05 in 10.0 mi WSW 18.4 mph 24.2 mph N/A   Overcast
1:55 AM 21.2 °F 7.3 °F 12.2 °F 68% 30.05 in 10.0 mi SW 16.1 mph - N/A   Mostly Cloudy
2:15 AM 21.2 °F 4.5 °F 14.0 °F 74% 30.04 in 10.0 mi SW 24.2 mph 29.9 mph N/A   Mostly Cloudy
2:35 AM 21.2 °F 5.2 °F 12.2 °F 68% 30.03 in 10.0 mi SW 21.9 mph 28.8 mph N/A   Partly Cloudy
2:55 AM 21.2 °F 5.2 °F 12.2 °F 68% 30.02 in 10.0 mi SW 21.9 mph 28.8 mph N/A   Clear
3:15 AM 21.2 °F 6.0 °F 12.2 °F 68% 30.01 in 10.0 mi SW 19.6 mph 27.6 mph N/A   Partly Cloudy
3:35 AM 21.2 °F 5.2 °F 12.2 °F 68% 29.99 in 10.0 mi SW 21.9 mph 27.6 mph N/A   Clear
3:55 AM 21.2 °F 4.9 °F 10.4 °F 63% 29.98 in 10.0 mi SW 23.0 mph 29.9 mph 0.01 in   Clear
4:15 AM 23.0 °F 8.7 °F 10.4 °F 59% 29.96 in 10.0 mi SW 18.4 mph 26.5 mph N/A   Clear
4:35 AM 24.8 °F 11.1 °F 15.8 °F 69% 29.96 in 10.0 mi SSW 18.4 mph 27.6 mph N/A   Scattered Clouds
4:55 AM 24.8 °F 11.5 °F 15.8 °F 69% 29.94 in 10.0 mi SSW 17.3 mph 29.9 mph N/A   Mostly Cloudy
5:15 AM 26.6 °F 12.7 °F 17.6 °F 69% 29.93 in 10.0 mi SSW 20.7 mph 31.1 mph N/A   Mostly Cloudy
5:35 AM 26.6 °F 12.0 °F 17.6 °F 69% 29.91 in 10.0 mi SSW 23.0 mph 32.2 mph 0.01 in   Scattered Clouds
5:55 AM 28.4 °F 14.4 °F 19.4 °F 69% 29.91 in 10.0 mi SSW 23.0 mph 31.1 mph 0.01 in   Mostly Cloudy
6:15 AM 28.4 °F 13.8 °F 19.4 °F 69% 29.90 in 10.0 mi SSW 25.3 mph 35.7 mph N/A   Overcast
6:35 AM 30.2 °F 17.1 °F 19.4 °F 64% 29.90 in 10.0 mi SSW 21.9 mph 33.4 mph N/A   Overcast
6:55 AM 30.2 °F 18.1 °F 21.2 °F 69% 29.89 in 10.0 mi SSW 18.4 mph 29.9 mph N/A   Overcast
7:15 AM 30.2 °F 16.5 °F 21.2 °F 69% 29.88 in 10.0 mi SSW 24.2 mph 35.7 mph N/A   Overcast
7:35 AM 32.0 °F 19.5 °F 21.2 °F 64% 29.86 in 10.0 mi SSW 21.9 mph 32.2 mph N/A   Overcast
7:55 AM 32.0 °F 19.5 °F 24.8 °F 75% 29.86 in 10.0 mi SSW 21.9 mph 33.4 mph N/A   Overcast
8:15 AM 32.0 °F 18.9 °F 23.0 °F 69% 29.84 in 8.0 mi SSW 24.2 mph 34.5 mph N/A   Overcast
8:35 AM 33.8 °F 22.2 °F 24.8 °F 70% 29.83 in 10.0 mi South 20.7 mph 29.9 mph N/A   Overcast
8:55 AM 33.8 °F 21.6 °F 26.6 °F 75% 29.82 in 10.0 mi South 23.0 mph 31.1 mph N/A   Overcast
9:15 AM 33.8 °F 23.2 °F 28.4 °F 81% 29.80 in 10.0 mi South 17.3 mph 24.2 mph N/A   Overcast
9:35 AM 35.6 °F 24.8 °F 26.6 °F 70% 29.80 in 10.0 mi SSW 19.6 mph 31.1 mph N/A   Overcast
9:55 AM 37.4 °F 26.9 °F 26.6 °F 65% 29.78 in 10.0 mi SSW 20.7 mph 34.5 mph N/A   Overcast
10:15 AM 37.4 °F 25.6 °F 26.6 °F 65% 29.77 in 10.0 mi SSW 26.5 mph 33.4 mph N/A   Overcast
10:35 AM 37.4 °F 25.9 °F 26.6 °F 65% 29.75 in 10.0 mi SSW 25.3 mph 35.7 mph N/A   Overcast
10:55 AM 37.4 °F 27.2 °F 26.6 °F 65% 29.73 in 10.0 mi SSW 19.6 mph 33.4 mph N/A   Overcast
11:15 AM 37.4 °F 26.1 °F 26.6 °F 65% 29.71 in 10.0 mi SSW 24.2 mph 31.1 mph N/A   Overcast
11:35 AM 39.2 °F 29.8 °F 28.4 °F 65% 29.69 in 10.0 mi South 18.4 mph 32.2 mph N/A   Mostly Cloudy
11:55 AM 39.2 °F 29.0 °F 28.4 °F 65% 29.67 in 10.0 mi SSW 21.9 mph 33.4 mph N/A   Overcast
12:15 PM 39.2 °F 29.6 °F 28.4 °F 65% 29.65 in 10.0 mi SSW 19.6 mph 34.5 mph N/A   Mostly Cloudy
12:35 PM 39.2 °F 28.7 °F 28.4 °F 65% 29.63 in 10.0 mi SSW 23.0 mph 29.9 mph N/A   Mostly Cloudy
12:55 PM 39.2 °F 28.3 °F 28.4 °F 65% 29.61 in 10.0 mi SSW 25.3 mph 31.1 mph N/A   Mostly Cloudy
1:15 PM 39.2 °F 29.3 °F 30.2 °F 70% 29.60 in 10.0 mi SSW 20.7 mph 29.9 mph N/A   Overcast
1:35 PM 41.0 °F 30.9 °F 28.4 °F 61% 29.59 in 10.0 mi SSW 24.2 mph 36.8 mph N/A   Scattered Clouds
1:55 PM 39.2 °F 28.7 °F 28.4 °F 65% 29.57 in 10.0 mi SSW 23.0 mph 35.7 mph 0.01 in   Clear
2:15 PM 39.2 °F 28.7 °F 28.4 °F 65% 29.56 in 10.0 mi SSW 23.0 mph 31.1 mph N/A   Partly Cloudy
2:35 PM 39.2 °F 28.5 °F 28.4 °F 65% 29.54 in 10.0 mi SSW 24.2 mph 33.4 mph N/A   Partly Cloudy
2:55 PM 39.2 °F 28.7 °F 28.4 °F 65% 29.54 in 10.0 mi SSW 23.0 mph 31.1 mph N/A   Clear
3:15 PM 39.2 °F 29.6 °F 28.4 °F 65% 29.52 in 10.0 mi SSW 19.6 mph 29.9 mph N/A   Clear
3:35 PM 39.2 °F 29.6 °F 28.4 °F 65% 29.51 in 10.0 mi SSW 19.6 mph 28.8 mph N/A   Clear
3:55 PM 39.2 °F 29.8 °F 28.4 °F 65% 29.50 in 10.0 mi SSW 18.4 mph 26.5 mph N/A   Clear
4:15 PM 39.2 °F 29.8 °F 28.4 °F 65% 29.49 in 10.0 mi SSW 18.4 mph 24.2 mph N/A   Clear
4:35 PM 39.2 °F 30.8 °F 30.2 °F 70% 29.48 in 10.0 mi SSW 15.0 mph 21.9 mph N/A   Clear
4:55 PM 39.2 °F 30.8 °F 30.2 °F 70% 29.46 in 10.0 mi South 15.0 mph 21.9 mph N/A   Partly Cloudy
5:15 PM 39.2 °F 31.2 °F 28.4 °F 65% 29.45 in 10.0 mi SSW 13.8 mph - N/A   Scattered Clouds
5:35 PM 39.2 °F 31.2 °F 30.2 °F 70% 29.43 in 10.0 mi SSW 13.8 mph - N/A   Mostly Cloudy
5:55 PM 37.4 °F 29.8 °F 32.0 °F 81% 29.41 in 10.0 mi SSW 11.5 mph - N/A   Scattered Clouds
6:15 PM 37.4 °F 29.8 °F 30.2 °F 75% 29.41 in 10.0 mi SSW 11.5 mph - N/A   Partly Cloudy
6:35 PM 37.4 °F 28.2 °F 30.2 °F 75% 29.41 in 10.0 mi SW 16.1 mph 21.9 mph N/A   Mostly Cloudy
6:55 PM 37.4 °F 28.2 °F 28.4 °F 70% 29.39 in 10.0 mi SSW 16.1 mph 23.0 mph N/A   Mostly Cloudy
7:15 PM 37.4 °F 26.1 °F 30.2 °F 75% 29.39 in 10.0 mi SW 24.2 mph 33.4 mph N/A   Mostly Cloudy
7:35 PM 37.4 °F 27.2 °F 28.4 °F 70% 29.38 in 10.0 mi SW 19.6 mph 31.1 mph N/A   Mostly Cloudy
7:55 PM 35.6 °F 24.8 °F 28.4 °F 75% 29.37 in 10.0 mi SW 19.6 mph 27.6 mph N/A   Mostly Cloudy
8:15 PM 33.8 °F 23.5 °F 30.2 °F 87% 29.36 in 10.0 mi SW 16.1 mph 24.2 mph N/A   Overcast
8:35 PM 33.8 °F 22.2 °F 28.4 °F 81% 29.35 in 10.0 mi WSW 20.7 mph 26.5 mph N/A   Overcast
8:55 PM 33.8 °F 23.2 °F 28.4 °F 81% 29.35 in 4.0 mi WSW 17.3 mph - 0.02 in   Overcast
9:15 PM 30.2 °F 17.4 °F 28.4 °F 93% 29.35 in 4.0 mi WSW 20.7 mph 27.6 mph N/A   Overcast
9:35 PM 30.2 °F 17.8 °F 26.6 °F 86% 29.35 in 8.0 mi WSW 19.6 mph 26.5 mph N/A   Overcast
9:55 PM 30.2 °F 18.1 °F 24.8 °F 80% 29.35 in 10.0 mi WSW 18.4 mph 28.8 mph N/A   Mostly Cloudy
10:15 PM 30.2 °F 18.1 °F 24.8 °F 80% 29.34 in 10.0 mi West 18.4 mph 27.6 mph N/A   Mostly Cloudy
10:35 PM 30.2 °F 17.8 °F 23.0 °F 75% 29.36 in 10.0 mi West 19.6 mph 26.5 mph N/A   Mostly Cloudy
10:55 PM 28.4 °F 14.7 °F 21.2 °F 74% 29.36 in 10.0 mi WSW 21.9 mph 28.8 mph N/A   Mostly Cloudy
11:15 PM 28.4 °F 15.1 °F 21.2 °F 74% 29.35 in 10.0 mi West 20.7 mph 26.5 mph N/A   Mostly Cloudy
11:35 PM 28.4 °F 16.2 °F 21.2 °F 74% 29.35 in 10.0 mi West 17.3 mph 25.3 mph N/A   Mostly Cloudy
11:55 PM 28.4 °F 15.1 °F 21.2 °F 74% 29.34 in 10.0 mi West 20.7 mph 26.5 mph N/A   Mostly Cloudy